Terminal Aerodrome Forecast
Issued by NWS

Home | Current Version | Previous Version | Text Only | Print | Product List | Glossary On
Versions: 1 2 3 4 5 6 7 8 9 10 11 12 13 14
649
FTUS43 KLSX 221129
TAFSUS
TAF
KSUS 221129Z 2212/2312 08006KT P6SM -SHRA OVC050
     FM221600 08010G20KT P6SM VCSH OVC045
     FM230600 07012KT 6SM -SHRA OVC030
     FM230800 04010KT 6SM -SHRA OVC020=

USA.gov is the U.S. government's official web portal to all federal, state and local government web resources and services.